createdAt,value
2019-05-02T00:03:14.467Z,10.53
2019-05-02T00:08:18.316Z,10.53
2019-05-02T00:13:21.812Z,10.55
2019-05-02T00:18:25.892Z,10.24
2019-05-02T00:23:29.463Z,10.38
2019-05-02T00:28:32.983Z,10.36
2019-05-02T00:33:36.417Z,10.36
2019-05-02T00:38:39.968Z,10.28
2019-05-02T00:43:43.329Z,10.05
2019-05-02T00:48:54.254Z,9.87
2019-05-02T00:53:56.381Z,9.87
2019-05-02T00:59:02.363Z,9.80
2019-05-02T01:04:15.855Z,9.67
2019-05-02T01:09:19.259Z,9.66
2019-05-02T01:14:26.812Z,9.56
2019-05-02T01:19:27.809Z,9.48
2019-05-02T01:24:34.234Z,9.47
2019-05-02T01:29:37.996Z,9.48
2019-05-02T01:34:54.214Z,9.48
2019-05-02T01:39:54.038Z,9.47
2019-05-02T01:44:57.451Z,9.43
2019-05-02T01:50:00.882Z,9.46
2019-05-02T01:55:06.244Z,9.44
2019-05-02T02:00:11.733Z,9.37
2019-05-02T02:05:15.143Z,9.34
2019-05-02T02:10:19.871Z,9.38
2019-05-02T02:15:25.029Z,9.49
2019-05-02T02:20:30.976Z,9.48
2019-05-02T02:25:45.265Z,9.57
2019-05-02T02:30:48.698Z,9.59
2019-05-02T02:35:52.333Z,9.51
2019-05-02T02:40:55.896Z,9.56
2019-05-02T02:46:09.785Z,9.60
2019-05-02T02:51:22.574Z,9.70
2019-05-02T02:56:18.347Z,9.75
2019-05-02T03:01:28.833Z,9.66
2019-05-02T03:06:27.170Z,9.49
2019-05-02T03:11:32.408Z,9.56
2019-05-02T03:16:46.039Z,9.35
2019-05-02T03:22:01.133Z,9.43
2019-05-02T03:26:59.759Z,9.56
2019-05-02T03:32:15.134Z,9.42
2019-05-02T03:37:11.378Z,9.26
2019-05-02T03:42:13.655Z,9.22
2019-05-02T03:47:17.138Z,9.01
2019-05-02T03:52:20.565Z,9.18
2019-05-02T03:57:32.921Z,9.18
2019-05-02T04:02:29.465Z,9.39
2019-05-02T04:07:39.355Z,9.57
2019-05-02T04:12:38.328Z,9.66
2019-05-02T04:17:42.796Z,9.71
2019-05-02T04:22:48.951Z,9.81
2019-05-02T04:27:52.167Z,9.75
2019-05-02T04:32:56.164Z,9.91
2019-05-02T04:38:02.707Z,9.95
2019-05-02T04:43:10.993Z,9.93
2019-05-02T04:48:11.118Z,9.98
2019-05-02T04:53:14.565Z,9.96
2019-05-02T04:58:27.596Z,9.94
2019-05-02T05:03:23.124Z,9.95
2019-05-02T05:08:31.733Z,9.87
2019-05-02T05:13:31.714Z,9.94
2019-05-02T05:18:37.601Z,10.01
2019-05-02T05:23:41.948Z,10.09
2019-05-02T05:28:47.546Z,10.04
2019-05-02T05:33:50.579Z,10.14
2019-05-02T05:38:53.991Z,9.99
2019-05-02T05:43:57.564Z,10.05
2019-05-02T05:49:00.923Z,10.13
2019-05-02T05:54:04.634Z,10.16
2019-05-02T05:59:08.061Z,10.16
2019-05-02T06:04:13.864Z,10.11
2019-05-02T06:09:16.638Z,10.27
2019-05-02T06:14:24.780Z,10.28
2019-05-02T06:19:25.283Z,10.14
2019-05-02T06:24:28.728Z,10.24
2019-05-02T06:29:32.131Z,10.46
2019-05-02T06:34:38.734Z,10.38
2019-05-02T06:39:40.890Z,10.40
2019-05-02T06:44:44.337Z,10.56
2019-05-02T06:49:47.766Z,10.48
2019-05-02T06:54:54.111Z,10.47
2019-05-02T06:59:56.484Z,10.48
2019-05-02T07:05:01.131Z,10.58
2019-05-02T07:10:08.868Z,10.53
2019-05-02T07:15:14.575Z,10.72
2019-05-02T07:20:18.445Z,10.72
2019-05-02T07:25:21.880Z,11.00
2019-05-02T07:30:30.016Z,11.10
2019-05-02T07:35:30.916Z,10.89
2019-05-02T07:40:34.377Z,11.05
2019-05-02T07:45:40.207Z,11.30
2019-05-02T07:50:46.592Z,11.37
2019-05-02T07:55:49.292Z,11.29
2019-05-02T08:00:52.802Z,11.53
2019-05-02T08:05:58.659Z,11.71
2019-05-02T08:11:02.889Z,11.89
2019-05-02T08:16:06.491Z,11.69
2019-05-02T08:21:09.928Z,11.88
2019-05-02T08:26:16.476Z,11.99
2019-05-02T08:31:20.772Z,12.10
2019-05-02T08:36:23.642Z,12.24
2019-05-02T08:41:27.130Z,12.34
2019-05-02T08:46:30.563Z,12.60
2019-05-02T08:51:33.989Z,12.69
2019-05-02T08:56:37.415Z,13.01
2019-05-02T09:01:44.731Z,13.36
2019-05-02T09:06:46.143Z,13.86
2019-05-02T09:12:03.307Z,14.35
2019-05-02T09:16:54.772Z,14.52
2019-05-02T09:21:58.181Z,15.12
2019-05-02T09:27:02.489Z,14.91
2019-05-02T09:32:06.092Z,15.20
2019-05-02T09:37:12.006Z,15.22
2019-05-02T09:42:18.858Z,15.68
2019-05-02T09:47:27.239Z,15.63
2019-05-02T09:52:34.097Z,16.43
2019-05-02T09:57:34.621Z,16.99
2019-05-02T10:02:38.121Z,16.73
2019-05-02T10:07:42.007Z,16.80
2019-05-02T10:12:45.542Z,17.15
2019-05-02T10:17:48.972Z,17.64
2019-05-02T10:22:53.016Z,18.46
2019-05-02T10:27:56.615Z,18.88
2019-05-02T10:33:00.095Z,18.90
2019-05-02T10:38:03.517Z,19.73
2019-05-02T10:43:06.940Z,19.63
2019-05-02T10:48:22.845Z,19.90
2019-05-02T10:53:15.849Z,20.69
2019-05-02T10:58:26.257Z,20.69
2019-05-02T11:03:26.195Z,21.49
2019-05-02T11:08:31.705Z,21.49
2019-05-02T11:13:39.025Z,21.57
2019-05-02T11:18:52.262Z,21.61
2019-05-02T11:23:55.264Z,21.25
2019-05-02T11:28:58.865Z,21.80
2019-05-02T11:34:02.266Z,21.18
2019-05-02T11:39:16.829Z,20.02
2019-05-02T11:44:13.171Z,20.75
2019-05-02T11:49:16.592Z,21.30
2019-05-02T11:54:20.021Z,22.66
2019-05-02T11:59:27.983Z,23.37
2019-05-02T12:04:28.829Z,23.90
2019-05-02T12:09:32.254Z,23.59
2019-05-02T12:14:36.503Z,23.23
2019-05-02T12:19:39.975Z,23.07
2019-05-02T12:24:45.377Z,23.21
2019-05-02T12:29:50.185Z,23.22
2019-05-02T12:34:53.771Z,22.94
2019-05-02T12:39:57.198Z,22.74
2019-05-02T12:45:02.720Z,21.82
2019-05-02T12:50:06.722Z,22.09
2019-05-02T12:55:10.346Z,22.03
2019-05-02T13:00:18.497Z,22.12
2019-05-02T13:05:22.229Z,21.86
2019-05-02T13:10:45.431Z,21.30
2019-05-02T13:15:48.940Z,21.57
2019-05-02T13:20:52.872Z,21.31
2019-05-02T13:25:56.593Z,21.33
2019-05-02T13:31:17.714Z,20.94
2019-05-02T13:36:45.752Z,20.94
2019-05-02T13:41:49.520Z,21.27
2019-05-02T13:46:53.561Z,21.79
2019-05-02T13:51:57.171Z,21.95
2019-05-02T13:57:02.967Z,21.66
2019-05-02T14:02:07.341Z,21.67
2019-05-02T14:07:13.233Z,20.47
2019-05-02T14:12:17.643Z,20.47
2019-05-02T14:17:24.381Z,20.15
2019-05-02T14:22:29.473Z,19.98
2019-05-02T14:27:33.038Z,19.74
2019-05-02T14:32:36.475Z,19.19
2019-05-02T14:37:42.130Z,19.06
2019-05-02T14:42:45.658Z,18.94
2019-05-02T14:47:49.771Z,18.56
2019-05-02T14:52:55.937Z,17.80
2019-05-02T14:58:04.086Z,16.58
2019-05-02T15:03:06.061Z,16.01
2019-05-02T15:08:09.477Z,15.49
2019-05-02T15:13:12.911Z,15.50
2019-05-02T15:18:17.622Z,15.02
2019-05-02T15:23:22.720Z,15.12
2019-05-02T15:28:31.948Z,14.89
2019-05-02T15:33:32.184Z,14.87
2019-05-02T15:38:37.143Z,14.69
2019-05-02T15:43:44.208Z,14.73
2019-05-02T15:48:46.807Z,14.69
2019-05-02T15:54:05.377Z,14.33
2019-05-02T15:59:04.759Z,14.11
2019-05-02T16:04:06.784Z,14.03
2019-05-02T16:09:11.864Z,14.27
2019-05-02T16:14:15.415Z,14.06
2019-05-02T16:19:24.671Z,14.14
2019-05-02T16:24:25.464Z,14.19
2019-05-02T16:29:29.234Z,14.09
2019-05-02T16:34:35.303Z,14.18
2019-05-02T16:39:42.595Z,14.09
2019-05-02T16:44:43.160Z,14.13
2019-05-02T16:49:47.936Z,14.18
2019-05-02T16:54:52.638Z,14.19
2019-05-02T17:00:01.324Z,14.07
2019-05-02T17:05:08.267Z,14.07
2019-05-02T17:10:14.813Z,14.13
2019-05-02T17:15:31.277Z,14.12
2019-05-02T17:20:33.398Z,13.93
2019-05-02T17:25:36.838Z,13.88
2019-05-02T17:30:41.107Z,13.96
2019-05-02T17:35:49.478Z,13.94
2019-05-02T17:40:54.122Z,13.94
2019-05-02T17:45:56.406Z,13.94
2019-05-02T17:51:04.408Z,13.86
2019-05-02T17:56:14.661Z,13.73
2019-05-02T18:01:14.715Z,13.78
2019-05-02T18:06:30.108Z,13.72
2019-05-02T18:11:23.505Z,13.66
2019-05-02T18:16:27.002Z,13.66
2019-05-02T18:21:32.324Z,13.59
2019-05-02T18:26:35.981Z,13.54
2019-05-02T18:31:43.431Z,13.56
2019-05-02T18:36:44.717Z,13.51
2019-05-02T18:41:48.355Z,13.36
2019-05-02T18:46:51.985Z,13.38
2019-05-02T18:51:57.363Z,13.31
2019-05-02T18:57:02.480Z,13.30
2019-05-02T19:02:05.964Z,13.36
2019-05-02T19:07:12.923Z,13.31
2019-05-02T19:12:22.389Z,13.27
2019-05-02T19:17:21.829Z,13.25
2019-05-02T19:22:25.309Z,13.19
2019-05-02T19:27:46.627Z,13.13
2019-05-02T19:32:50.192Z,13.18
2019-05-02T19:37:55.085Z,13.11
2019-05-02T19:43:03.374Z,13.07
2019-05-02T19:48:04.120Z,13.04
2019-05-02T19:53:14.818Z,13.00
2019-05-02T19:58:13.222Z,12.85
2019-05-02T20:03:21.568Z,12.82
2019-05-02T20:08:24.528Z,12.73
2019-05-02T20:13:29.651Z,12.71
2019-05-02T20:18:34.971Z,12.74
2019-05-02T20:23:37.899Z,12.79
2019-05-02T20:28:42.921Z,12.78
2019-05-02T20:33:46.347Z,12.59
2019-05-02T20:38:49.820Z,12.49
2019-05-02T20:43:53.284Z,12.45
2019-05-02T20:48:56.823Z,12.36
2019-05-02T20:54:01.988Z,12.23
2019-05-02T20:59:05.704Z,12.19
2019-05-02T21:04:09.176Z,12.24
2019-05-02T21:09:22.091Z,12.16
2019-05-02T21:14:25.227Z,11.83
2019-05-02T21:19:28.717Z,11.91
2019-05-02T21:24:32.736Z,11.81
2019-05-02T21:29:36.270Z,11.82
2019-05-02T21:34:42.337Z,11.75
2019-05-02T21:39:45.364Z,11.71
2019-05-02T21:44:48.790Z,11.71
2019-05-02T21:49:56.609Z,11.54
2019-05-02T21:55:01.959Z,11.46
2019-05-02T22:00:16.128Z,11.40
2019-05-02T22:05:22.868Z,11.27
2019-05-02T22:10:26.256Z,11.28
2019-05-02T22:15:29.691Z,11.29
2019-05-02T22:20:33.118Z,11.22
2019-05-02T22:25:36.715Z,11.16
2019-05-02T22:30:40.306Z,11.14
2019-05-02T22:35:44.070Z,11.01
2019-05-02T22:40:49.124Z,10.99
2019-05-02T22:45:52.538Z,10.82
2019-05-02T22:50:55.934Z,10.72
2019-05-02T22:55:59.396Z,10.80
2019-05-02T23:01:04.130Z,10.85
2019-05-02T23:06:07.559Z,10.66
2019-05-02T23:11:12.863Z,10.50
2019-05-02T23:16:16.232Z,10.68
2019-05-02T23:21:21.705Z,10.56
2019-05-02T23:26:38.730Z,10.68
2019-05-02T23:31:42.335Z,10.39
2019-05-02T23:36:45.787Z,10.29
2019-05-02T23:41:49.228Z,10.35
2019-05-02T23:46:52.667Z,10.29
2019-05-02T23:51:56.113Z,10.43
2019-05-02T23:56:59.614Z,10.50
